createdAt,value
2023-03-26T00:00:28.386Z,96595.63
2023-03-26T00:02:31.380Z,96599.09
2023-03-26T00:04:35.515Z,96586.84
2023-03-26T00:06:41.722Z,96581.53
2023-03-26T00:08:46.076Z,96594.25
2023-03-26T00:10:48.875Z,96589.50
2023-03-26T00:12:51.928Z,96590.09
2023-03-26T00:14:54.726Z,96598.06
2023-03-26T00:16:57.531Z,96605.25
2023-03-26T00:19:01.305Z,96604.44
2023-03-26T00:21:07.708Z,96602.56
2023-03-26T00:23:10.461Z,96594.81
2023-03-26T00:25:13.631Z,96587.88
2023-03-26T00:27:17.447Z,96582.56
2023-03-26T00:29:20.254Z,96577.03
2023-03-26T00:31:23.077Z,96582.56
2023-03-26T00:33:25.875Z,96585.44
2023-03-26T00:35:29.819Z,96604.06
2023-03-26T00:37:34.102Z,96611.81
2023-03-26T00:39:37.321Z,96624.88
2023-03-26T00:41:43.062Z,96627.78
2023-03-26T00:43:48.415Z,96609.97
2023-03-26T00:45:54.208Z,96596.66
2023-03-26T00:47:57.243Z,96589.28
2023-03-26T00:50:00.349Z,96592.16
2023-03-26T00:52:03.619Z,96591.81
2023-03-26T00:54:08.670Z,96601.81
2023-03-26T00:56:12.038Z,96586.91
2023-03-26T00:58:15.911Z,96583.22
2023-03-26T01:00:20.433Z,96586.69
2023-03-26T01:02:25.556Z,96594.31
2023-03-26T01:04:31.935Z,96596.97
2023-03-26T01:06:36.646Z,96580.78
2023-03-26T01:08:42.750Z,96570.72
2023-03-26T01:10:50.743Z,96574.19
2023-03-26T01:12:53.828Z,96563.56
2023-03-26T01:15:01.291Z,96564.59
2023-03-26T01:17:07.094Z,96550.06
2023-03-26T01:19:16.484Z,96540.44
2023-03-26T01:21:23.197Z,96542.91
2023-03-26T01:23:31.883Z,96533.31
2023-03-26T01:25:42.129Z,96521.47
2023-03-26T01:27:49.937Z,96492.31
2023-03-26T01:29:55.692Z,96486.19
2023-03-26T01:32:10.519Z,96496.84
2023-03-26T01:34:22.108Z,96495.78
2023-03-26T01:36:33.573Z,96500.06
2023-03-26T01:38:46.531Z,96495.78
2023-03-26T01:40:56.019Z,96495.41
2023-03-26T01:43:05.255Z,96494.59
2023-03-26T01:45:12.737Z,96488.47
2023-03-26T01:47:18.680Z,96486.63
2023-03-26T01:49:21.423Z,96488.47
2023-03-26T01:51:30.249Z,96485.59
2023-03-26T01:53:33.982Z,96476.56
2023-03-26T01:55:43.464Z,96465.13
2023-03-26T01:57:59.526Z,96456.97
2023-03-26T02:00:14.274Z,96450.00
2023-03-26T02:02:28.687Z,96451.41
2023-03-26T02:04:37.596Z,96445.88
2023-03-26T02:06:45.765Z,96444.25
2023-03-26T02:08:54.216Z,96450.72
2023-03-26T02:10:58.535Z,96445.78
2023-03-26T02:13:03.003Z,96445.56
2023-03-26T02:15:07.215Z,96442.06
2023-03-26T02:17:10.844Z,96446.38
2023-03-26T02:19:21.383Z,96435.75
2023-03-26T02:21:26.014Z,96438.75
2023-03-26T02:23:29.697Z,96445.69
2023-03-26T02:25:35.204Z,96446.72
2023-03-26T02:27:38.209Z,96439.78
2023-03-26T02:29:42.547Z,96423.69
2023-03-26T02:31:47.112Z,96424.16
2023-03-26T02:33:49.924Z,96409.81
2023-03-26T02:35:53.138Z,96409.00
2023-03-26T02:37:56.756Z,96400.09
2023-03-26T02:39:59.462Z,96395.66
2023-03-26T02:42:02.425Z,96399.72
2023-03-26T02:44:06.439Z,96390.50
2023-03-26T02:46:10.847Z,96383.22
2023-03-26T02:48:15.070Z,96386.47
2023-03-26T02:50:17.886Z,96382.75
2023-03-26T02:52:20.669Z,96381.28
2023-03-26T02:54:23.449Z,96379.22
2023-03-26T02:56:26.470Z,96373.91
2023-03-26T02:58:30.102Z,96374.72
2023-03-26T03:00:33.594Z,96378.63
2023-03-26T03:02:38.916Z,96358.19
2023-03-26T03:04:41.812Z,96352.06
2023-03-26T03:06:45.550Z,96338.19
2023-03-26T03:08:48.803Z,96342.69
2023-03-26T03:10:59.294Z,96336.56
2023-03-26T03:13:04.028Z,96334.91
2023-03-26T03:15:07.752Z,96333.28
2023-03-26T03:17:10.596Z,96320.22
2023-03-26T03:19:15.055Z,96324.97
2023-03-26T03:21:18.038Z,96324.75
2023-03-26T03:23:21.313Z,96320.69
2023-03-26T03:25:25.969Z,96299.88
2023-03-26T03:27:28.800Z,96297.00
2023-03-26T03:29:31.575Z,96299.44
2023-03-26T03:31:34.355Z,96299.09
2023-03-26T03:33:37.239Z,96292.97
2023-03-26T03:35:41.611Z,96288.44
2023-03-26T03:37:44.581Z,96296.41
2023-03-26T03:39:47.840Z,96299.50
2023-03-26T03:41:50.589Z,96289.34
2023-03-26T03:43:53.380Z,96278.72
2023-03-26T03:45:56.403Z,96289.34
2023-03-26T03:47:59.552Z,96280.78
2023-03-26T03:50:02.331Z,96274.91
2023-03-26T03:52:06.897Z,96269.34
2023-03-26T03:54:09.895Z,96265.41
2023-03-26T03:56:14.591Z,96272.59
2023-03-26T03:58:22.356Z,96259.06
2023-03-26T04:00:25.392Z,96272.59
2023-03-26T04:02:30.321Z,96260.00
2023-03-26T04:04:34.309Z,96255.91
2023-03-26T04:06:37.144Z,96255.91
2023-03-26T04:08:41.502Z,96255.09
2023-03-26T04:10:45.010Z,96253.88
2023-03-26T04:12:47.838Z,96250.97
2023-03-26T04:14:50.605Z,96250.97
2023-03-26T04:16:53.397Z,96251.78
2023-03-26T04:18:57.304Z,96249.34
2023-03-26T04:21:02.843Z,96247.75
2023-03-26T04:23:06.445Z,96243.81
2023-03-26T04:25:11.400Z,96241.72
2023-03-26T04:27:17.840Z,96235.94
2023-03-26T04:29:24.371Z,96237.34
2023-03-26T04:31:30.337Z,96235.47
2023-03-26T04:33:35.554Z,96240.22
2023-03-26T04:35:41.756Z,96237.47
2023-03-26T04:37:45.987Z,96242.19
2023-03-26T04:39:50.153Z,96232.81
2023-03-26T04:41:54.270Z,96236.38
2023-03-26T04:43:57.159Z,96236.84
2023-03-26T04:46:04.437Z,96227.13
2023-03-26T04:48:08.324Z,96212.00
2023-03-26T04:50:12.534Z,96212.44
2023-03-26T04:52:15.881Z,96228.16
2023-03-26T04:54:24.411Z,96233.00
2023-03-26T04:56:35.645Z,96241.22
2023-03-26T04:58:39.933Z,96238.31
2023-03-26T05:00:43.219Z,96237.28
2023-03-26T05:02:49.949Z,96230.59
2023-03-26T05:04:52.841Z,96219.72
2023-03-26T05:06:56.696Z,96228.50
2023-03-26T05:08:59.543Z,96230.34
2023-03-26T05:11:02.316Z,96234.50
2023-03-26T05:13:05.126Z,96240.63
2023-03-26T05:15:11.703Z,96248.03
2023-03-26T05:17:18.746Z,96243.75
2023-03-26T05:19:22.046Z,96239.25
2023-03-26T05:21:25.152Z,96236.00
2023-03-26T05:23:27.990Z,96227.44
2023-03-26T05:25:30.978Z,96221.53
2023-03-26T05:27:34.458Z,96207.47
2023-03-26T05:29:37.553Z,96196.25
2023-03-26T05:31:41.947Z,96185.84
2023-03-26T05:33:45.343Z,96179.97
2023-03-26T05:35:49.371Z,96173.38
2023-03-26T05:37:52.555Z,96179.97
2023-03-26T05:39:55.839Z,96185.72
2023-03-26T05:41:58.705Z,96201.06
2023-03-26T05:44:01.588Z,96191.03
2023-03-26T05:46:04.817Z,96176.13
2023-03-26T05:48:09.010Z,96177.16
2023-03-26T05:50:12.443Z,96182.72
2023-03-26T05:52:18.901Z,96179.25
2023-03-26T05:54:21.697Z,96186.19
2023-03-26T05:56:24.541Z,96193.09
2023-03-26T05:58:28.641Z,96196.81
2023-03-26T06:00:33.504Z,96195.75
2023-03-26T06:02:37.037Z,96193.69
2023-03-26T06:04:42.582Z,96206.16
2023-03-26T06:06:45.801Z,96220.47
2023-03-26T06:09:01.608Z,96205.56
2023-03-26T06:11:07.937Z,96221.28
2023-03-26T06:13:11.843Z,96218.63
2023-03-26T06:15:14.652Z,96225.44
2023-03-26T06:17:17.871Z,96236.06
2023-03-26T06:19:20.628Z,96236.63
2023-03-26T06:21:24.999Z,96242.53
2023-03-26T06:23:29.352Z,96243.56
2023-03-26T06:25:32.131Z,96224.16
2023-03-26T06:27:34.900Z,96225.44
2023-03-26T06:29:37.655Z,96218.97
2023-03-26T06:31:41.536Z,96202.44
2023-03-26T06:33:44.789Z,96212.00
2023-03-26T06:35:47.601Z,96218.50
2023-03-26T06:37:51.733Z,96217.47
2023-03-26T06:39:54.512Z,96220.94
2023-03-26T06:41:57.263Z,96207.31
2023-03-26T06:44:00.249Z,96210.53
2023-03-26T06:46:03.519Z,96204.19
2023-03-26T06:48:06.822Z,96195.41
2023-03-26T06:50:11.486Z,96192.75
2023-03-26T06:52:14.330Z,96183.53
2023-03-26T06:54:18.769Z,96183.28
2023-03-26T06:56:21.594Z,96192.06
2023-03-26T06:58:24.538Z,96185.13
2023-03-26T07:00:27.263Z,96181.44
2023-03-26T07:02:30.100Z,96182.25
2023-03-26T07:04:32.918Z,96195.53
2023-03-26T07:06:35.778Z,96200.59
2023-03-26T07:08:38.600Z,96186.91
2023-03-26T07:10:42.926Z,96195.91
2023-03-26T07:12:45.962Z,96192.78
2023-03-26T07:14:48.699Z,96185.63
2023-03-26T07:16:51.618Z,96187.25
2023-03-26T07:18:55.235Z,96186.19
2023-03-26T07:20:58.509Z,96182.75
2023-03-26T07:23:01.815Z,96179.97
2023-03-26T07:25:05.972Z,96173.84
2023-03-26T07:27:18.422Z,96162.41
2023-03-26T07:29:33.551Z,96158.50
2023-03-26T07:31:42.609Z,96155.13
2023-03-26T07:33:53.658Z,96159.63
2023-03-26T07:36:04.651Z,96157.56
2023-03-26T07:38:24.917Z,96150.84
2023-03-26T07:40:51.228Z,96158.59
2023-03-26T07:43:04.501Z,96155.94
2023-03-26T07:45:22.701Z,96153.06
2023-03-26T07:47:29.693Z,96162.06
2023-03-26T07:49:34.079Z,96181.94
2023-03-26T07:51:37.288Z,96191.16
2023-03-26T07:53:40.435Z,96200.28
2023-03-26T07:55:51.386Z,96210.91
2023-03-26T07:58:06.168Z,96211.97
2023-03-26T08:00:15.177Z,96218.31
2023-03-26T08:02:36.943Z,96207.69
2023-03-26T08:05:11.068Z,96197.88
2023-03-26T08:07:47.700Z,96153.97
2023-03-26T08:10:17.113Z,96136.44
2023-03-26T08:12:53.016Z,96126.03
2023-03-26T08:15:29.102Z,96151.31
2023-03-26T08:17:55.364Z,96179.03
2023-03-26T08:20:26.137Z,96179.41
2023-03-26T08:22:55.172Z,96188.78
2023-03-26T08:25:27.669Z,96163.81
2023-03-26T08:28:01.919Z,96138.88
2023-03-26T08:30:28.170Z,96160.13
2023-03-26T08:32:56.115Z,96175.38
2023-03-26T08:35:19.068Z,96201.13
2023-03-26T08:37:23.663Z,96201.13
2023-03-26T08:39:46.422Z,96185.56
2023-03-26T08:42:42.074Z,96183.25
2023-03-26T08:45:24.023Z,96176.88
2023-03-26T08:48:20.093Z,96188.66
2023-03-26T08:51:01.474Z,96185.56
2023-03-26T08:53:39.923Z,96181.88
2023-03-26T08:55:49.944Z,96181.88
2023-03-26T08:58:24.691Z,96179.22
2023-03-26T09:00:53.741Z,96172.38
2023-03-26T09:03:18.171Z,96181.63
2023-03-26T09:06:01.240Z,96179.44
2023-03-26T09:08:57.836Z,96177.22
2023-03-26T09:11:20.674Z,96181.16
2023-03-26T09:14:06.239Z,96171.69
2023-03-26T09:16:33.419Z,96170.19
2023-03-26T09:18:59.648Z,96160.00
2023-03-26T09:21:44.208Z,96167.75
2023-03-26T09:24:19.329Z,96162.44
2023-03-26T09:26:38.428Z,96171.47
2023-03-26T09:29:22.823Z,96165.31
2023-03-26T09:31:59.735Z,96161.66
2023-03-26T09:34:23.395Z,96160.69
2023-03-26T09:36:57.631Z,96153.75
2023-03-26T09:39:09.996Z,96154.00
2023-03-26T09:41:17.282Z,96149.50
2023-03-26T09:43:54.457Z,96142.56
2023-03-26T09:46:11.732Z,96129.63
2023-03-26T09:48:37.555Z,96125.00
2023-03-26T09:50:58.506Z,96119.56
2023-03-26T09:53:16.813Z,96114.47
2023-03-26T09:55:45.234Z,96125.34
2023-03-26T09:58:02.820Z,96110.66
2023-03-26T10:00:22.170Z,96112.75
2023-03-26T10:02:46.429Z,96138.72
2023-03-26T10:05:14.195Z,96141.59
2023-03-26T10:07:38.783Z,96145.28
2023-03-26T10:09:52.643Z,96140.22
2023-03-26T10:12:10.037Z,96150.84
2023-03-26T10:14:23.845Z,96145.88
2023-03-26T10:16:38.390Z,96150.13
2023-03-26T10:18:53.163Z,96138.50
2023-03-26T10:21:02.754Z,96141.97
2023-03-26T10:23:33.689Z,96149.72
2023-03-26T10:25:59.244Z,96147.16
2023-03-26T10:28:15.697Z,96147.16
2023-03-26T10:30:43.475Z,96158.59
2023-03-26T10:32:59.024Z,96171.06
2023-03-26T10:35:12.548Z,96177.19
2023-03-26T10:37:26.108Z,96187.38
2023-03-26T10:39:45.545Z,96167.06
2023-03-26T10:42:00.389Z,96172.38
2023-03-26T10:44:25.790Z,96171.78
2023-03-26T10:46:52.189Z,96172.47
2023-03-26T10:49:41.599Z,96167.06
2023-03-26T10:51:51.203Z,96171.81
2023-03-26T10:53:58.495Z,96175.06
2023-03-26T10:56:10.728Z,96171.91
2023-03-26T10:58:19.313Z,96165.47
2023-03-26T11:00:26.224Z,96170.44
2023-03-26T11:02:31.012Z,96161.03
2023-03-26T11:04:48.393Z,96153.31
2023-03-26T11:06:59.716Z,96137.25
2023-03-26T11:09:12.206Z,96143.72
2023-03-26T11:11:22.552Z,96135.50
2023-03-26T11:13:40.000Z,96146.97
2023-03-26T11:15:49.995Z,96144.53
2023-03-26T11:18:04.948Z,96145.00
2023-03-26T11:20:14.374Z,96156.53
2023-03-26T11:22:28.704Z,96156.19
2023-03-26T11:24:57.398Z,96164.19
2023-03-26T11:27:15.333Z,96149.50
2023-03-26T11:29:33.760Z,96145.88
2023-03-26T11:31:50.342Z,96156.03
2023-03-26T11:33:58.026Z,96153.34
2023-03-26T11:36:07.056Z,96153.09
2023-03-26T11:38:17.163Z,96169.91
2023-03-26T11:40:24.798Z,96164.09
2023-03-26T11:42:29.766Z,96158.66
2023-03-26T11:44:38.069Z,96136.59
2023-03-26T11:46:45.275Z,96134.97
2023-03-26T11:48:51.816Z,96132.31
2023-03-26T11:51:01.484Z,96124.34
2023-03-26T11:53:13.659Z,96109.63
2023-03-26T11:55:16.845Z,96093.94
2023-03-26T11:57:23.596Z,96077.59
2023-03-26T11:59:30.713Z,96060.59
2023-03-26T12:01:44.110Z,96062.28
2023-03-26T12:03:58.511Z,96058.97
2023-03-26T12:06:02.794Z,96044.22
2023-03-26T12:08:21.069Z,96038.69
2023-03-26T12:10:37.605Z,96029.81
2023-03-26T12:12:43.107Z,96016.66
2023-03-26T12:14:46.394Z,96010.03
2023-03-26T12:17:04.869Z,96011.66
2023-03-26T12:19:21.033Z,96036.91
2023-03-26T12:21:24.618Z,96049.97
2023-03-26T12:23:57.755Z,96053.88
2023-03-26T12:26:13.479Z,96066.38
2023-03-26T12:28:21.583Z,96049.41
2023-03-26T12:30:27.547Z,96025.66
2023-03-26T12:32:45.841Z,96014.09
2023-03-26T12:34:50.656Z,96000.97
2023-03-26T12:36:59.568Z,95997.25
2023-03-26T12:40:07.066Z,96001.28
2023-03-26T12:44:47.973Z,95996.22
2023-03-26T12:44:55.668Z,96005.22
2023-03-26T12:47:56.491Z,96034.88
2023-03-26T12:49:18.778Z,96063.66
2023-03-26T12:51:42.434Z,96075.31
2023-03-26T12:54:04.459Z,96068.56
2023-03-26T12:56:22.258Z,96077.09
2023-03-26T12:58:55.210Z,96082.13
2023-03-26T13:01:06.554Z,96098.00
2023-03-26T13:03:24.397Z,96131.84
2023-03-26T13:05:41.573Z,96154.34
2023-03-26T13:08:01.687Z,96152.28
2023-03-26T13:10:43.284Z,96158.53
2023-03-26T13:13:02.558Z,96108.34
2023-03-26T13:15:18.930Z,96089.63
2023-03-26T13:17:27.447Z,96062.06
2023-03-26T13:19:44.144Z,96064.88
2023-03-26T13:22:01.862Z,96072.72
2023-03-26T13:24:18.380Z,96077.97
2023-03-26T13:26:45.003Z,96094.53
2023-03-26T13:29:04.307Z,96097.72
2023-03-26T13:31:18.000Z,96100.94
2023-03-26T13:33:42.386Z,96105.22
2023-03-26T13:36:00.686Z,96100.44
2023-03-26T13:38:16.891Z,96106.03
2023-03-26T13:40:27.442Z,96108.75
2023-03-26T13:42:44.765Z,96109.03
2023-03-26T13:45:04.661Z,96093.84
2023-03-26T13:47:14.673Z,96086.84
2023-03-26T13:49:30.746Z,96089.63
2023-03-26T13:51:41.560Z,96084.09
2023-03-26T13:53:49.085Z,96081.81
2023-03-26T13:55:57.004Z,96084.25
2023-03-26T13:58:05.719Z,96083.47
2023-03-26T14:00:17.391Z,96087.66
2023-03-26T14:02:32.645Z,96087.19
2023-03-26T14:04:46.280Z,96085.16
2023-03-26T14:07:00.191Z,96086.31
2023-03-26T14:09:11.507Z,96086.81
2023-03-26T14:11:21.562Z,96097.66
2023-03-26T14:13:31.395Z,96096.19
2023-03-26T14:15:42.372Z,96104.53
2023-03-26T14:17:51.408Z,96114.94
2023-03-26T14:20:14.801Z,96102.84
2023-03-26T14:22:27.193Z,96115.44
2023-03-26T14:24:52.123Z,96113.50
2023-03-26T14:27:30.573Z,96115.47
2023-03-26T14:29:56.746Z,96108.88
2023-03-26T14:32:24.539Z,96105.19
2023-03-26T14:34:43.160Z,96106.00
2023-03-26T14:37:11.308Z,96112.09
2023-03-26T14:39:55.562Z,96111.31
2023-03-26T14:42:03.083Z,96103.56
2023-03-26T14:44:47.817Z,96113.53
2023-03-26T14:47:04.525Z,96107.28
2023-03-26T14:49:34.952Z,96107.06
2023-03-26T14:52:04.317Z,96111.09
2023-03-26T14:54:12.093Z,96118.63
2023-03-26T14:56:53.043Z,96123.47
2023-03-26T14:59:33.320Z,96116.22
2023-03-26T15:02:12.768Z,96108.50
2023-03-26T15:04:44.663Z,96116.69
2023-03-26T15:07:22.239Z,96115.78
2023-03-26T15:10:05.385Z,96110.22
2023-03-26T15:12:19.713Z,96114.50
2023-03-26T15:14:54.718Z,96112.41
2023-03-26T15:17:37.599Z,96112.78
2023-03-26T15:20:33.488Z,96112.53
2023-03-26T15:23:09.178Z,96110.22
2023-03-26T15:25:56.535Z,96106.97
2023-03-26T15:28:26.443Z,96098.88
2023-03-26T15:31:11.264Z,96096.81
2023-03-26T15:33:47.162Z,96091.75
2023-03-26T15:36:13.844Z,96096.59
2023-03-26T15:39:04.443Z,96102.72
2023-03-26T15:41:17.602Z,96090.13
2023-03-26T15:43:21.438Z,96091.59
2023-03-26T15:45:36.523Z,96085.25
2023-03-26T15:47:50.899Z,96082.16
2023-03-26T15:50:00.610Z,96074.84
2023-03-26T15:52:17.189Z,96079.69
2023-03-26T15:54:28.761Z,96065.81
2023-03-26T15:56:49.046Z,96065.00
2023-03-26T15:59:01.610Z,96061.47
2023-03-26T16:01:19.234Z,96059.63
2023-03-26T16:03:31.899Z,96051.75
2023-03-26T16:05:53.563Z,96062.63
2023-03-26T16:08:06.568Z,96059.25
2023-03-26T16:10:28.277Z,96053.84
2023-03-26T16:12:35.782Z,96052.22
2023-03-26T16:14:46.777Z,96042.50
2023-03-26T16:16:54.147Z,96044.13
2023-03-26T16:18:59.460Z,96043.09
2023-03-26T16:21:37.395Z,96039.63
2023-03-26T16:23:56.460Z,96040.22
2023-03-26T16:26:12.757Z,96042.06
2023-03-26T16:28:36.919Z,96030.41
2023-03-26T16:30:42.109Z,96020.34
2023-03-26T16:32:49.008Z,96021.16
2023-03-26T16:34:56.046Z,96017.69
2023-03-26T16:37:00.391Z,96017.47
2023-03-26T16:39:24.002Z,96009.25
2023-03-26T16:41:29.902Z,96007.16
2023-03-26T16:43:47.983Z,96007.72
2023-03-26T16:45:56.288Z,96001.75
2023-03-26T16:48:07.980Z,95992.97
2023-03-26T16:50:21.348Z,96002.88
2023-03-26T16:52:42.780Z,95997.31
2023-03-26T16:57:00.998Z,95993.75
2023-03-26T16:59:10.090Z,95991.56
2023-03-26T17:01:22.616Z,95992.81
2023-03-26T17:03:44.939Z,95998.38
2023-03-26T17:06:11.867Z,95992.03
2023-03-26T17:08:35.419Z,95992.16
2023-03-26T17:10:48.271Z,95992.63
2023-03-26T17:12:58.024Z,95984.06
2023-03-26T17:15:11.925Z,95977.28
2023-03-26T17:17:29.457Z,95981.31
2023-03-26T17:19:39.423Z,95976.94
2023-03-26T17:21:51.616Z,95978.22
2023-03-26T17:24:15.220Z,95975.78
2023-03-26T17:26:25.393Z,95963.78
2023-03-26T17:28:50.380Z,95965.97
2023-03-26T17:31:03.308Z,95969.19
2023-03-26T17:33:16.294Z,95970.81
2023-03-26T17:35:35.533Z,95968.16
2023-03-26T17:37:45.746Z,95970.56
2023-03-26T17:40:36.939Z,95965.50
2023-03-26T17:43:01.749Z,95973.47
2023-03-26T17:45:10.168Z,95972.66
2023-03-26T17:47:21.924Z,95963.31
2023-03-26T17:49:31.100Z,95968.63
2023-03-26T17:51:40.849Z,95969.44
2023-03-26T17:53:43.970Z,95954.31
2023-03-26T17:55:48.207Z,95964.94
2023-03-26T17:57:57.296Z,95964.13
2023-03-26T18:00:01.727Z,95949.00
2023-03-26T18:02:06.926Z,95950.59
2023-03-26T18:04:20.292Z,95952.22
2023-03-26T18:06:42.357Z,95958.56
2023-03-26T18:09:01.031Z,95958.81
2023-03-26T18:11:21.465Z,95959.28
2023-03-26T18:13:54.557Z,95953.16
2023-03-26T18:16:11.219Z,95956.06
2023-03-26T18:18:19.815Z,95975.44
2023-03-26T18:20:25.575Z,95985.59
2023-03-26T18:22:30.194Z,95998.28
2023-03-26T18:24:37.645Z,96001.31
2023-03-26T18:26:42.707Z,96005.00
2023-03-26T18:28:51.725Z,96008.47
2023-03-26T18:30:54.656Z,96008.69
2023-03-26T18:33:03.072Z,96009.22
2023-03-26T18:35:18.829Z,95998.34
2023-03-26T18:37:25.005Z,96012.09
2023-03-26T18:39:28.192Z,96009.50
2023-03-26T18:41:37.277Z,96007.78
2023-03-26T18:43:44.356Z,96004.38
2023-03-26T18:45:52.392Z,96010.16
2023-03-26T18:47:58.412Z,96006.00
2023-03-26T18:50:01.684Z,96012.50
2023-03-26T18:52:04.996Z,96009.97
2023-03-26T18:54:10.378Z,95996.72
2023-03-26T18:56:21.583Z,96005.25
2023-03-26T18:58:27.481Z,96003.63
2023-03-26T19:00:30.935Z,96002.38
2023-03-26T19:02:35.741Z,95993.16
2023-03-26T19:04:39.347Z,95987.28
2023-03-26T19:06:43.677Z,95997.91
2023-03-26T19:08:48.051Z,95984.41
2023-03-26T19:10:51.790Z,95987.88
2023-03-26T19:12:58.454Z,95981.38
2023-03-26T19:15:05.995Z,95980.56
2023-03-26T19:17:09.003Z,95987.72
2023-03-26T19:19:20.210Z,95984.25
2023-03-26T19:21:23.342Z,95977.34
2023-03-26T19:23:29.069Z,95971.81
2023-03-26T19:25:38.926Z,95966.06
2023-03-26T19:27:41.675Z,95961.34
2023-03-26T19:29:44.865Z,95961.13
2023-03-26T19:31:52.219Z,95958.00
2023-03-26T19:33:58.125Z,95958.56
2023-03-26T19:36:05.926Z,95948.19
2023-03-26T19:38:23.532Z,95952.94
2023-03-26T19:40:29.966Z,95945.53
2023-03-26T19:42:43.734Z,95949.81
2023-03-26T19:44:47.488Z,95946.59
2023-03-26T19:46:53.724Z,95947.84
2023-03-26T19:49:28.547Z,95953.63
2023-03-26T19:51:35.798Z,95952.34
2023-03-26T19:53:44.756Z,95957.66
2023-03-26T19:55:55.477Z,95948.31
2023-03-26T19:57:58.357Z,95952.13
2023-03-26T20:00:01.276Z,95952.94
2023-03-26T20:02:04.305Z,95949.22
2023-03-26T20:04:11.331Z,95950.84
2023-03-26T20:06:16.564Z,95949.81
2023-03-26T20:08:27.206Z,95948.34
2023-03-26T20:10:30.169Z,95954.22
2023-03-26T20:12:32.985Z,95961.38
2023-03-26T20:14:36.149Z,95962.66
2023-03-26T20:16:39.746Z,95963.44
2023-03-26T20:18:43.405Z,95965.50
2023-03-26T20:20:46.150Z,95964.50
2023-03-26T20:22:49.392Z,95960.56
2023-03-26T20:24:54.593Z,95963.22
2023-03-26T20:26:57.321Z,95972.22
2023-03-26T20:29:00.040Z,95966.31
2023-03-26T20:31:02.970Z,95971.59
2023-03-26T20:33:12.789Z,95974.25
2023-03-26T20:35:19.159Z,95968.75
2023-03-26T20:37:38.481Z,95976.25
2023-03-26T20:39:43.697Z,95977.88
2023-03-26T20:41:50.042Z,95978.31
2023-03-26T20:43:53.427Z,95978.56
2023-03-26T20:45:57.963Z,95976.91
2023-03-26T20:48:02.643Z,95983.06
2023-03-26T20:50:06.405Z,95991.81
2023-03-26T20:52:10.707Z,95989.38
2023-03-26T20:54:17.751Z,95983.06
2023-03-26T20:56:21.757Z,95987.91
2023-03-26T20:58:31.189Z,95990.56
2023-03-26T21:00:37.067Z,95993.88
2023-03-26T21:02:42.046Z,95996.16
2023-03-26T21:04:47.277Z,95993.41
2023-03-26T21:06:50.734Z,95989.94
2023-03-26T21:08:54.563Z,95988.09
2023-03-26T21:11:01.966Z,95998.47
2023-03-26T21:13:09.960Z,96003.31
2023-03-26T21:15:23.137Z,96010.47
2023-03-26T21:17:27.231Z,96014.16
2023-03-26T21:19:30.764Z,96014.97
2023-03-26T21:21:47.496Z,96020.84
2023-03-26T21:23:59.104Z,96017.16
2023-03-26T21:26:07.843Z,96024.06
2023-03-26T21:28:28.900Z,96037.34
2023-03-26T21:30:40.881Z,96033.88
2023-03-26T21:32:45.603Z,96043.44
2023-03-26T21:34:58.463Z,96048.97
2023-03-26T21:37:02.708Z,96050.59
2023-03-26T21:39:06.472Z,96049.22
2023-03-26T21:41:20.600Z,96055.78
2023-03-26T21:43:23.972Z,96051.94
2023-03-26T21:45:27.797Z,96062.78
2023-03-26T21:47:32.547Z,96057.69
